createdAt,value
2018-04-13T00:01:59.305Z,99904
2018-04-13T00:04:27.424Z,99908
2018-04-13T00:06:55.605Z,99907
2018-04-13T00:09:24.492Z,99904
2018-04-13T00:11:52.638Z,99909
2018-04-13T00:14:21.357Z,99898
2018-04-13T00:16:50.347Z,99900
2018-04-13T00:19:19.266Z,99904
2018-04-13T00:21:47.446Z,99902
2018-04-13T00:24:15.564Z,99905
2018-04-13T00:26:43.680Z,99901
2018-04-13T00:29:11.853Z,99900
2018-04-13T00:31:40.009Z,99902
2018-04-13T00:34:08.892Z,99897
2018-04-13T00:36:37.930Z,99899
2018-04-13T00:39:06.053Z,99901
2018-04-13T00:41:34.948Z,99898
2018-04-13T00:44:03.879Z,99896
2018-04-13T00:46:31.997Z,99897
2018-04-13T00:49:00.187Z,99895
2018-04-13T00:51:29.110Z,99895
2018-04-13T00:53:57.262Z,99888
2018-04-13T00:56:25.470Z,99898
2018-04-13T00:58:53.638Z,99899
2018-04-13T01:01:21.780Z,99896
2018-04-13T01:03:53.377Z,99887
2018-04-13T01:06:21.569Z,99887
2018-04-13T01:08:50.458Z,99883
2018-04-13T01:11:19.830Z,99888
2018-04-13T01:13:47.997Z,99888
2018-04-13T01:16:16.147Z,99883
2018-04-13T01:18:44.310Z,99885
2018-04-13T01:21:12.453Z,99885
2018-04-13T01:23:40.569Z,99885
2018-04-13T01:26:08.794Z,99886
2018-04-13T01:28:36.938Z,99876
2018-04-13T01:31:05.052Z,99877
2018-04-13T01:33:33.965Z,99880
2018-04-13T01:36:02.098Z,99882
2018-04-13T01:38:30.266Z,99883
2018-04-13T01:40:58.439Z,99882
2018-04-13T01:43:26.594Z,99890
2018-04-13T01:45:54.717Z,99886
2018-04-13T01:48:23.666Z,99884
2018-04-13T01:50:51.815Z,99873
2018-04-13T01:53:19.966Z,99873
2018-04-13T01:55:48.222Z,99864
2018-04-13T01:58:17.138Z,99867
2018-04-13T02:00:45.289Z,99868
2018-04-13T02:03:14.230Z,99867
2018-04-13T02:05:42.376Z,99857
2018-04-13T02:08:10.489Z,99864
2018-04-13T02:10:38.634Z,99866
2018-04-13T02:13:06.773Z,99861
2018-04-13T02:15:35.724Z,99872
2018-04-13T02:18:03.844Z,99862
2018-04-13T02:20:32.051Z,99863
2018-04-13T02:23:00.230Z,99873
2018-04-13T02:25:28.349Z,99862
2018-04-13T02:27:57.262Z,99860
2018-04-13T02:30:26.219Z,99853
2018-04-13T02:32:55.158Z,99858
2018-04-13T02:35:23.277Z,99862
2018-04-13T02:37:51.446Z,99855
2018-04-13T02:40:19.606Z,99857
2018-04-13T02:42:47.765Z,99865
2018-04-13T02:45:16.798Z,99864
2018-04-13T02:47:46.638Z,99876
2018-04-13T02:50:14.844Z,99870
2018-04-13T02:52:43.024Z,99880
2018-04-13T02:55:11.151Z,99883
2018-04-13T02:57:39.384Z,99886
2018-04-13T03:00:07.559Z,99881
2018-04-13T03:02:36.580Z,99884
2018-04-13T03:05:05.453Z,99884
2018-04-13T03:07:34.408Z,99878
2018-04-13T03:10:02.579Z,99878
2018-04-13T03:12:30.750Z,99877
2018-04-13T03:14:58.917Z,99885
2018-04-13T03:17:27.873Z,99879
2018-04-13T03:19:56.801Z,99888
2018-04-13T03:22:25.080Z,99892
2018-04-13T03:24:53.205Z,99885
2018-04-13T03:27:22.118Z,99877
2018-04-13T03:29:50.268Z,99885
2018-04-13T03:32:19.181Z,99885
2018-04-13T03:34:47.334Z,99881
2018-04-13T03:37:16.250Z,99882
2018-04-13T03:39:44.363Z,99884
2018-04-13T03:42:12.585Z,99890
2018-04-13T03:44:40.766Z,99892
2018-04-13T03:47:08.941Z,99901
2018-04-13T03:49:37.813Z,99902
2018-04-13T03:52:05.957Z,99905
2018-04-13T03:54:34.106Z,99904
2018-04-13T03:57:02.397Z,99918
2018-04-13T03:59:30.683Z,99919
2018-04-13T04:01:59.565Z,99926
2018-04-13T04:04:28.157Z,99916
2018-04-13T04:06:57.045Z,99917
2018-04-13T04:09:25.971Z,99922
2018-04-13T04:11:54.131Z,99914
2018-04-13T04:14:22.244Z,99910
2018-04-13T04:16:50.360Z,99918
2018-04-13T04:22:32.150Z,99921
2018-04-13T04:25:12.329Z,99928
2018-04-13T04:27:41.224Z,99925
2018-04-13T04:30:09.347Z,99935
2018-04-13T04:32:37.521Z,99939
2018-04-13T04:35:05.666Z,99939
2018-04-13T04:37:33.831Z,99931
2018-04-13T04:40:01.996Z,99940
2018-04-13T04:42:30.142Z,99936
2018-04-13T04:44:59.067Z,99945
2018-04-13T04:47:27.232Z,99932
2018-04-13T04:49:55.383Z,99946
2018-04-13T04:52:24.380Z,99932
2018-04-13T04:54:53.324Z,99939
2018-04-13T04:57:21.448Z,99939
2018-04-13T04:59:50.337Z,99942
2018-04-13T05:02:19.306Z,99954
2018-04-13T05:04:47.626Z,99954
2018-04-13T05:07:15.744Z,99964
2018-04-13T05:09:43.902Z,99959
2018-04-13T05:12:12.024Z,99972
2018-04-13T05:14:40.253Z,99972
2018-04-13T05:17:08.377Z,99984
2018-04-13T05:19:37.893Z,99979
2018-04-13T05:22:06.057Z,99985
2018-04-13T05:24:34.217Z,99986
2018-04-13T05:27:02.366Z,99978
2018-04-13T05:29:30.510Z,99976
2018-04-13T05:31:58.662Z,99980
2018-04-13T05:34:26.835Z,99974
2018-04-13T05:36:55.048Z,99979
2018-04-13T05:39:23.226Z,99982
2018-04-13T05:41:51.378Z,99977
2018-04-13T05:44:19.537Z,99979
2018-04-13T05:46:47.745Z,99983
2018-04-13T05:49:15.898Z,99977
2018-04-13T05:51:44.090Z,99977
2018-04-13T05:54:12.261Z,99983
2018-04-13T05:56:41.257Z,99981
2018-04-13T05:59:10.186Z,99980
2018-04-13T06:01:39.140Z,99978
2018-04-13T06:04:07.257Z,99973
2018-04-13T06:06:38.110Z,99983
2018-04-13T06:09:08.705Z,99977
2018-04-13T06:11:36.895Z,99983
2018-04-13T06:14:05.089Z,99973
2018-04-13T06:16:33.212Z,99987
2018-04-13T06:19:02.125Z,99988
2018-04-13T06:21:30.407Z,99992
2018-04-13T06:23:58.580Z,100001
2018-04-13T06:26:27.559Z,99996
2018-04-13T06:28:56.329Z,100004
2018-04-13T06:31:25.252Z,100021
2018-04-13T06:33:53.413Z,100018
2018-04-13T06:36:21.569Z,100026
2018-04-13T06:38:51.130Z,100029
2018-04-13T06:41:20.244Z,100039
2018-04-13T06:43:48.408Z,100062
2018-04-13T06:46:16.587Z,100076
2018-04-13T06:48:44.798Z,100093
2018-04-13T06:51:16.554Z,100094
2018-04-13T06:53:45.530Z,100100
2018-04-13T06:56:14.422Z,100092
2018-04-13T06:58:42.572Z,100110
2018-04-13T07:01:10.700Z,100116
2018-04-13T07:03:39.049Z,100109
2018-04-13T07:06:08.278Z,100112
2018-04-13T07:08:36.400Z,100114
2018-04-13T07:11:04.533Z,100109
2018-04-13T07:13:32.685Z,100104
2018-04-13T07:16:00.824Z,100095
2018-04-13T07:18:29.820Z,100094
2018-04-13T07:20:59.705Z,100106
2018-04-13T07:23:27.859Z,100105
2018-04-13T07:25:56.014Z,100106
2018-04-13T07:28:24.252Z,100119
2018-04-13T07:30:53.251Z,100121
2018-04-13T07:33:22.176Z,100125
2018-04-13T07:35:50.342Z,100125
2018-04-13T07:38:20.054Z,100131
2018-04-13T07:40:48.188Z,100151
2018-04-13T07:43:17.258Z,100158
2018-04-13T07:45:45.435Z,100159
2018-04-13T07:48:13.470Z,100150
2018-04-13T07:50:42.066Z,100147
2018-04-13T07:53:09.948Z,100163
2018-04-13T07:55:38.392Z,100167
2018-04-13T07:58:07.330Z,100143
2018-04-13T08:00:35.599Z,100136
2018-04-13T08:03:03.732Z,100134
2018-04-13T08:05:32.789Z,100130
2018-04-13T08:08:00.944Z,100134
2018-04-13T08:10:29.098Z,100136
2018-04-13T08:12:58.042Z,100132
2018-04-13T08:15:26.974Z,100106
2018-04-13T08:17:55.161Z,100087
2018-04-13T08:20:23.304Z,100076
2018-04-13T08:22:51.445Z,100074
2018-04-13T08:25:19.570Z,100068
2018-04-13T08:27:47.881Z,100066
2018-04-13T08:30:16.929Z,100067
2018-04-13T08:32:45.081Z,100073
2018-04-13T08:35:13.382Z,100078
2018-04-13T08:37:41.733Z,100077
2018-04-13T08:40:10.675Z,100076
2018-04-13T08:42:38.855Z,100068
2018-04-13T08:45:07.744Z,100059
2018-04-13T08:47:37.496Z,100055
2018-04-13T08:50:05.670Z,100055
2018-04-13T08:52:33.810Z,100063
2018-04-13T08:55:03.057Z,100063
2018-04-13T08:57:31.997Z,100059
2018-04-13T09:00:00.885Z,100059
2018-04-13T09:02:29.937Z,100077
2018-04-13T09:04:58.095Z,100074
2018-04-13T09:07:26.245Z,100067
2018-04-13T09:09:54.422Z,100067
2018-04-13T09:12:22.548Z,100068
2018-04-13T09:14:50.707Z,100070
2018-04-13T09:17:18.840Z,100068
2018-04-13T09:19:46.965Z,100073
2018-04-13T09:22:15.113Z,100084
2018-04-13T09:24:43.238Z,100089
2018-04-13T09:27:11.670Z,100096
2018-04-13T09:29:39.633Z,100097
2018-04-13T09:32:07.798Z,100102
2018-04-13T09:34:35.965Z,100103
2018-04-13T09:37:04.145Z,100104
2018-04-13T09:39:32.272Z,100119
2018-04-13T09:42:01.194Z,100109
2018-04-13T09:44:29.340Z,100117
2018-04-13T09:46:58.231Z,100123
2018-04-13T09:49:26.389Z,100125
2018-04-13T09:51:55.330Z,100125
2018-04-13T09:54:23.488Z,100137
2018-04-13T09:56:52.853Z,100142
2018-04-13T09:59:21.746Z,100134
2018-04-13T10:01:50.669Z,100135
2018-04-13T10:04:19.524Z,100131
2018-04-13T10:06:48.449Z,100132
2018-04-13T10:09:16.596Z,100137
2018-04-13T10:11:45.485Z,100118
2018-04-13T10:14:14.499Z,100120
2018-04-13T10:16:42.678Z,100114
2018-04-13T10:19:10.930Z,100120
2018-04-13T10:21:39.056Z,100119
2018-04-13T10:24:07.209Z,100116
2018-04-13T10:26:35.336Z,100122
2018-04-13T10:29:04.221Z,100129
2018-04-13T10:31:33.148Z,100137
2018-04-13T10:34:01.311Z,100148
2018-04-13T10:36:29.492Z,100153
2018-04-13T10:38:57.638Z,100144
2018-04-13T10:41:26.527Z,100144
2018-04-13T10:43:55.436Z,100146
2018-04-13T10:46:23.647Z,100142
2018-04-13T10:48:51.788Z,100147
2018-04-13T10:51:20.137Z,100156
2018-04-13T10:53:49.051Z,100153
2018-04-13T10:56:17.190Z,100149
2018-04-13T10:58:46.121Z,100151
2018-04-13T11:01:14.270Z,100165
2018-04-13T11:03:42.461Z,100157
2018-04-13T11:06:11.342Z,100147
2018-04-13T11:08:39.460Z,100137
2018-04-13T11:11:07.660Z,100135
2018-04-13T11:13:36.554Z,100133
2018-04-13T11:16:05.443Z,100131
2018-04-13T11:18:34.490Z,100137
2018-04-13T11:21:03.449Z,100123
2018-04-13T11:23:31.622Z,100132
2018-04-13T11:25:59.774Z,100117
2018-04-13T11:28:28.729Z,100120
2018-04-13T11:30:56.905Z,100115
2018-04-13T11:33:25.097Z,100105
2018-04-13T11:35:53.258Z,100101
2018-04-13T11:38:21.405Z,100097
2018-04-13T11:40:49.540Z,100094
2018-04-13T11:43:18.462Z,100096
2018-04-13T11:45:46.735Z,100089
2018-04-13T11:48:14.872Z,100082
2018-04-13T11:50:43.788Z,100094
2018-04-13T11:53:11.948Z,100094
2018-04-13T11:55:40.105Z,100097
2018-04-13T11:58:08.337Z,100087
2018-04-13T12:00:36.473Z,100087
2018-04-13T12:03:04.688Z,100090
2018-04-13T12:05:32.848Z,100083
2018-04-13T12:08:01.019Z,100087
2018-04-13T12:10:29.175Z,100089
2018-04-13T12:12:57.322Z,100089
2018-04-13T12:15:25.476Z,100088
2018-04-13T12:17:54.428Z,100089
2018-04-13T12:20:22.612Z,100093
2018-04-13T12:22:50.778Z,100088
2018-04-13T12:25:18.930Z,100074
2018-04-13T12:27:47.118Z,100080
2018-04-13T12:30:15.271Z,100075
2018-04-13T12:32:43.422Z,100073
2018-04-13T12:35:11.571Z,100075
2018-04-13T12:37:39.717Z,100078
2018-04-13T12:40:07.836Z,100084
2018-04-13T12:42:36.758Z,100079
2018-04-13T12:45:04.877Z,100086
2018-04-13T12:47:32.998Z,100077
2018-04-13T12:50:01.178Z,100078
2018-04-13T12:52:29.333Z,100078
2018-04-13T12:54:57.708Z,100085
2018-04-13T12:57:25.769Z,100081
2018-04-13T12:59:53.893Z,100084
2018-04-13T13:02:22.041Z,100085
2018-04-13T13:04:50.280Z,100080
2018-04-13T13:07:18.472Z,100079
2018-04-13T13:09:46.650Z,100082
2018-04-13T13:12:14.764Z,100080
2018-04-13T13:14:42.914Z,100070
2018-04-13T13:17:11.064Z,100075
2018-04-13T13:19:39.213Z,100070
2018-04-13T13:22:08.111Z,100069
2018-04-13T13:24:36.408Z,100066
2018-04-13T13:27:04.533Z,100075
2018-04-13T13:29:33.404Z,100063
2018-04-13T13:32:01.570Z,100069
2018-04-13T13:34:29.728Z,100065
2018-04-13T13:36:57.902Z,100065
2018-04-13T13:39:26.020Z,100061
2018-04-13T13:41:54.904Z,100065
2018-04-13T13:44:23.108Z,100067
2018-04-13T13:46:51.237Z,100068
2018-04-13T13:49:19.437Z,100070
2018-04-13T13:51:48.404Z,100081
2018-04-13T13:54:16.530Z,100076
2018-04-13T13:56:44.674Z,100077
2018-04-13T13:59:13.597Z,100077
2018-04-13T14:01:41.754Z,100070
2018-04-13T14:04:09.885Z,100069
2018-04-13T14:06:38.034Z,100066
2018-04-13T14:09:07.006Z,100062
2018-04-13T14:11:35.166Z,100057
2018-04-13T14:14:03.353Z,100066
2018-04-13T14:16:31.515Z,100068
2018-04-13T14:18:59.647Z,100079
2018-04-13T14:21:27.837Z,100075
2018-04-13T14:23:56.765Z,100059
2018-04-13T14:26:24.882Z,100053
2018-04-13T14:28:53.014Z,100044
2018-04-13T14:31:21.193Z,100051
2018-04-13T14:33:49.350Z,100042
2018-04-13T14:36:17.477Z,100047
2018-04-13T14:38:46.418Z,100040
2018-04-13T14:41:14.546Z,100045
2018-04-13T14:43:42.680Z,100049
2018-04-13T14:46:10.794Z,100051
2018-04-13T14:48:39.691Z,100055
2018-04-13T14:51:08.573Z,100061
2018-04-13T14:53:37.513Z,100058
2018-04-13T14:56:05.647Z,100049
2018-04-13T14:58:33.772Z,100050
2018-04-13T15:01:02.011Z,100062
2018-04-13T15:03:30.082Z,100060
2018-04-13T15:05:58.200Z,100063
2018-04-13T15:08:26.370Z,100063
2018-04-13T15:10:54.526Z,100066
2018-04-13T15:13:22.644Z,100070
2018-04-13T15:15:51.584Z,100062
2018-04-13T15:18:19.706Z,100077
2018-04-13T15:20:48.659Z,100074
2018-04-13T15:23:16.794Z,100078
2018-04-13T15:25:44.939Z,100076
2018-04-13T15:28:13.916Z,100078
2018-04-13T15:30:42.066Z,100084
2018-04-13T15:33:10.227Z,100083
2018-04-13T15:35:38.407Z,100079
2018-04-13T15:38:06.574Z,100084
2018-04-13T15:40:34.750Z,100073
2018-04-13T15:43:02.929Z,100080
2018-04-13T15:45:31.068Z,100076
2018-04-13T15:47:59.249Z,100078
2018-04-13T15:50:27.400Z,100069
2018-04-13T15:52:55.553Z,100079
2018-04-13T15:55:24.510Z,100086
2018-04-13T15:57:52.724Z,100092
2018-04-13T16:00:21.640Z,100101
2018-04-13T16:02:49.823Z,100109
2018-04-13T16:05:18.090Z,100107
2018-04-13T16:07:46.248Z,100111
2018-04-13T16:10:14.410Z,100109
2018-04-13T16:12:43.369Z,100104
2018-04-13T16:15:11.519Z,100108
2018-04-13T16:17:39.701Z,100113
2018-04-13T16:20:07.887Z,100117
2018-04-13T16:22:36.053Z,100123
2018-04-13T16:25:04.229Z,100133
2018-04-13T16:27:32.353Z,100136
2018-04-13T16:30:00.522Z,100145
2018-04-13T16:32:28.767Z,100138
2018-04-13T16:34:57.693Z,100128
2018-04-13T16:37:25.976Z,100141
2018-04-13T16:39:54.169Z,100134
2018-04-13T16:42:22.349Z,100146
2018-04-13T16:44:50.515Z,100138
2018-04-13T16:47:18.702Z,100131
2018-04-13T16:49:46.951Z,100134
2018-04-13T16:52:15.187Z,100134
2018-04-13T16:54:44.189Z,100131
2018-04-13T16:57:13.096Z,100131
2018-04-13T16:59:41.323Z,100137
2018-04-13T17:02:09.515Z,100133
2018-04-13T17:04:38.432Z,100133
2018-04-13T17:07:06.667Z,100132
2018-04-13T17:09:35.588Z,100134
2018-04-13T17:12:03.786Z,100118
2018-04-13T17:14:32.052Z,100123
2018-04-13T17:17:00.204Z,100118
2018-04-13T17:19:29.173Z,100107
2018-04-13T17:21:58.122Z,100118
2018-04-13T17:24:26.306Z,100112
2018-04-13T17:26:54.485Z,100118
2018-04-13T17:29:22.747Z,100115
2018-04-13T17:31:50.965Z,100115
2018-04-13T17:34:19.946Z,100112
2018-04-13T17:36:48.865Z,100110
2018-04-13T17:39:17.112Z,100130
2018-04-13T17:41:46.043Z,100156
2018-04-13T17:44:14.251Z,100194
2018-04-13T17:46:42.588Z,100228
2018-04-13T17:49:10.823Z,100224
2018-04-13T17:51:39.063Z,100228
2018-04-13T17:54:07.281Z,100265
2018-04-13T17:56:35.487Z,100273
2018-04-13T17:59:03.689Z,100286
2018-04-13T18:01:31.922Z,100276
2018-04-13T18:04:00.227Z,100262
2018-04-13T18:06:28.390Z,100251
2018-04-13T18:08:56.607Z,100247
2018-04-13T18:11:24.829Z,100249
2018-04-13T18:13:53.050Z,100245
2018-04-13T18:16:21.326Z,100242
2018-04-13T18:18:49.773Z,100236
2018-04-13T18:21:18.089Z,100237
2018-04-13T18:23:46.273Z,100243
2018-04-13T18:26:15.270Z,100244
2018-04-13T18:28:45.037Z,100245
2018-04-13T18:31:13.425Z,100259
2018-04-13T18:33:41.763Z,100262
2018-04-13T18:36:09.930Z,100265
2018-04-13T18:38:38.113Z,100273
2018-04-13T18:41:06.376Z,100248
2018-04-13T18:43:34.611Z,100245
2018-04-13T18:46:02.791Z,100269
2018-04-13T18:48:30.987Z,100273
2018-04-13T18:51:00.042Z,100274
2018-04-13T18:53:28.234Z,100287
2018-04-13T18:55:56.407Z,100290
2018-04-13T18:58:24.789Z,100306
2018-04-13T19:00:53.770Z,100311
2018-04-13T19:03:22.051Z,100323
2018-04-13T19:05:50.249Z,100315
2018-04-13T19:08:19.848Z,100316
2018-04-13T19:10:49.137Z,100319
2018-04-13T19:13:18.055Z,100307
2018-04-13T19:15:46.245Z,100317
2018-04-13T19:18:14.535Z,100309
2018-04-13T19:20:42.829Z,100291
2018-04-13T19:23:11.325Z,100288
2018-04-13T19:25:40.272Z,100299
2018-04-13T19:28:08.489Z,100288
2018-04-13T19:30:37.449Z,100279
2018-04-13T19:33:05.647Z,100272
2018-04-13T19:35:33.868Z,100268
2018-04-13T19:38:02.209Z,100248
2018-04-13T19:40:30.569Z,100231
2018-04-13T19:42:58.992Z,100227
2018-04-13T19:45:27.287Z,100221
2018-04-13T19:47:56.391Z,100237
2018-04-13T19:50:24.871Z,100234
2018-04-13T19:52:53.247Z,100215
2018-04-13T19:55:21.491Z,100194
2018-04-13T19:57:50.592Z,100208
2018-04-13T20:00:19.614Z,100207
2018-04-13T20:02:47.895Z,100203
2018-04-13T20:05:16.306Z,100199
2018-04-13T20:07:44.453Z,100196
2018-04-13T20:10:12.705Z,100191
2018-04-13T20:12:40.969Z,100201
2018-04-13T20:15:09.167Z,100193
2018-04-13T20:17:37.393Z,100203
2018-04-13T20:20:06.288Z,100204
2018-04-13T20:22:35.268Z,100209
2018-04-13T20:25:04.172Z,100209
2018-04-13T20:27:33.110Z,100214
2018-04-13T20:30:01.275Z,100235
2018-04-13T20:32:29.412Z,100250
2018-04-13T20:34:58.325Z,100251
2018-04-13T20:37:26.470Z,100251
2018-04-13T20:39:54.622Z,100262
2018-04-13T20:42:22.815Z,100270
2018-04-13T20:44:50.986Z,100262
2018-04-13T20:47:19.933Z,100257
2018-04-13T20:49:48.059Z,100256
2018-04-13T20:52:16.193Z,100257
2018-04-13T20:54:44.324Z,100267
2018-04-13T20:57:12.490Z,100273
2018-04-13T20:59:40.633Z,100279
2018-04-13T21:02:09.638Z,100297
2018-04-13T21:04:37.827Z,100307
2018-04-13T21:07:06.027Z,100302
2018-04-13T21:09:34.198Z,100306
2018-04-13T21:12:02.318Z,100321
2018-04-13T21:14:31.309Z,100319
2018-04-13T21:17:00.282Z,100330
2018-04-13T21:19:28.450Z,100331
2018-04-13T21:21:56.631Z,100330
2018-04-13T21:24:25.571Z,100334
2018-04-13T21:26:53.722Z,100340
2018-04-13T21:29:21.857Z,100345
2018-04-13T21:31:49.964Z,100349
2018-04-13T21:34:18.863Z,100353
2018-04-13T21:36:47.002Z,100354
2018-04-13T21:39:15.320Z,100350
2018-04-13T21:41:43.437Z,100367
2018-04-13T21:44:11.610Z,100366
2018-04-13T21:46:39.798Z,100367
2018-04-13T21:49:08.835Z,100369
2018-04-13T21:51:37.033Z,100371
2018-04-13T21:54:05.205Z,100376
2018-04-13T21:56:33.360Z,100382
2018-04-13T21:59:01.513Z,100385
2018-04-13T22:01:29.656Z,100382
2018-04-13T22:03:57.928Z,100386
2018-04-13T22:06:27.624Z,100389
2018-04-13T22:08:55.867Z,100397
2018-04-13T22:11:24.056Z,100403
2018-04-13T22:14:10.321Z,100398
2018-04-13T22:16:38.499Z,100414
2018-04-13T22:19:06.777Z,100420
2018-04-13T22:21:34.931Z,100425
2018-04-13T22:24:03.806Z,100420
2018-04-13T22:26:32.861Z,100425
2018-04-13T22:29:01.029Z,100439
2018-04-13T22:31:29.250Z,100436
2018-04-13T22:33:57.552Z,100434
2018-04-13T22:36:25.705Z,100432
2018-04-13T22:38:54.067Z,100435
2018-04-13T22:41:22.985Z,100438
2018-04-13T22:43:51.138Z,100439
2018-04-13T22:46:20.024Z,100443
2018-04-13T22:48:49.070Z,100447
2018-04-13T22:51:17.205Z,100445
2018-04-13T22:53:45.445Z,100442
2018-04-13T22:56:13.585Z,100442
2018-04-13T22:58:41.733Z,100444
2018-04-13T23:01:09.927Z,100447
2018-04-13T23:03:38.049Z,100440
2018-04-13T23:06:06.998Z,100460
2018-04-13T23:08:35.233Z,100459
2018-04-13T23:11:03.442Z,100467
2018-04-13T23:13:32.413Z,100460
2018-04-13T23:16:00.620Z,100465
2018-04-13T23:18:28.861Z,100454
2018-04-13T23:20:57.130Z,100465
2018-04-13T23:23:25.380Z,100463
2018-04-13T23:25:54.314Z,100471
2018-04-13T23:28:22.502Z,100474
2018-04-13T23:30:50.648Z,100474
2018-04-13T23:33:18.842Z,100476
2018-04-13T23:35:47.105Z,100469
2018-04-13T23:38:15.373Z,100473
2018-04-13T23:40:43.488Z,100470
2018-04-13T23:43:11.629Z,100468
2018-04-13T23:45:39.754Z,100467
2018-04-13T23:48:08.725Z,100476
2018-04-13T23:50:36.880Z,100475
2018-04-13T23:53:04.996Z,100480
2018-04-13T23:55:33.169Z,100476
2018-04-13T23:58:02.081Z,100474
